Time;durP1;ratioP1;P1;durP2;ratioP2;P2;SDS_P1;SDS_P2;PMS_P1;PMS_P2;Temp;Humidity;BMP_temperature;BMP_pressure;BME280_temperature;BME280_humidity;BME280_pressure;Samples;Min_cycle;Max_cycle;Signal;HPM_P1;HPM_P2
2022/08/10 00:06:31;;;;;;;2.70;2.50;;;16.80;99.90;;;;;;5076254;28;20473;-74
2022/08/10 00:09:24;;;;;;;2.47;2.27;;;16.80;99.90;;;;;;5077666;28;20481;-74
2022/08/10 00:16:03;;;;;;;3.70;2.30;;;16.70;99.90;;;;;;5072668;28;20468;-74
2022/08/10 00:19:11;;;;;;;2.23;2.13;;;16.70;99.90;;;;;;5074186;28;20537;-75
2022/08/10 00:22:26;;;;;;;3.03;2.20;;;16.70;99.90;;;;;;5078180;28;20445;-75
2022/08/10 00:25:22;;;;;;;2.30;2.10;;;16.60;99.90;;;;;;5073544;28;21057;-74
2022/08/10 00:28:29;;;;;;;2.83;2.10;;;16.60;99.90;;;;;;5078405;28;20436;-74
2022/08/10 00:31:52;;;;;;;2.30;2.13;;;16.60;99.90;;;;;;5075686;28;20464;-74
2022/08/10 00:35:10;;;;;;;2.57;2.37;;;16.50;99.90;;;;;;5077742;28;20850;-74
2022/08/10 00:38:36;;;;;;;2.50;2.40;;;16.50;99.90;;;;;;5077613;28;20450;-74
2022/08/10 00:41:33;;;;;;;2.50;2.30;;;16.50;99.90;;;;;;5076290;28;20976;-74
2022/08/10 00:45:09;;;;;;;2.57;2.37;;;16.50;99.90;;;;;;5077800;28;20473;-74
2022/08/10 00:48:17;;;;;;;4.50;2.23;;;16.40;99.90;;;;;;5076156;28;20457;-74
2022/08/10 00:51:32;;;;;;;3.40;2.60;;;16.40;99.90;;;;;;5076299;28;20452;-74
2022/08/10 00:54:48;;;;;;;2.20;1.77;;;16.30;99.90;;;;;;5074162;28;20504;-74
2022/08/10 00:58:08;;;;;;;3.20;2.40;;;16.30;99.90;;;;;;5078910;28;20437;-74
2022/08/10 01:01:03;;;;;;;2.47;2.20;;;16.20;99.90;;;;;;5075075;28;21084;-74
2022/08/10 01:03:55;;;;;;;5.23;2.63;;;16.20;99.90;;;;;;5076012;28;20541;-75
2022/08/10 01:07:26;;;;;;;2.60;2.40;;;16.20;99.90;;;;;;5076522;28;20449;-74
2022/08/10 01:10:33;;;;;;;2.30;2.10;;;16.10;99.90;;;;;;5076359;28;20588;-75
2022/08/10 01:13:51;;;;;;;2.30;2.20;;;16.10;99.90;;;;;;5077207;28;20515;-74
2022/08/10 01:16:54;;;;;;;3.57;1.97;;;16.00;99.90;;;;;;5075386;28;20445;-74
2022/08/10 01:20:06;;;;;;;3.17;2.87;;;16.00;99.90;;;;;;5071476;28;20450;-75
2022/08/10 01:23:50;;;;;;;;;;;;;;;;;;;;;
2022/08/10 01:27:24;;;;;;;4.10;2.90;;;15.90;99.90;;;;;;5071185;28;20894;-75
2022/08/10 01:30:35;;;;;;;2.80;2.50;;;15.90;99.90;;;;;;5076546;28;20465;-74
2022/08/10 01:33:34;;;;;;;2.70;2.50;;;15.80;99.90;;;;;;5073081;28;20981;-74
2022/08/10 01:36:53;;;;;;;2.37;2.13;;;15.80;99.90;;;;;;5069295;28;20453;-74
2022/08/10 01:40:12;;;;;;;3.70;2.47;;;15.80;99.90;;;;;;5068451;28;20542;-74
2022/08/10 01:43:22;;;;;;;2.77;2.57;;;15.70;99.90;;;;;;5073806;28;20484;-74
2022/08/10 01:46:37;;;;;;;2.87;2.57;;;15.70;99.90;;;;;;5067647;28;20960;-74
2022/08/10 01:49:36;;;;;;;2.90;2.30;;;15.70;99.90;;;;;;5073131;28;20472;-74
2022/08/10 01:52:52;;;;;;;3.27;2.20;;;15.70;99.90;;;;;;5070605;28;20559;-74
2022/08/10 01:56:09;;;;;;;2.83;2.40;;;15.60;99.90;;;;;;5073747;28;20468;-74
2022/08/10 01:59:44;;;;;;;;;;;;;;;;;;;;;
2022/08/10 02:03:07;;;;;;;2.47;2.27;;;15.60;99.90;;;;;;5071800;28;20470;-74
2022/08/10 02:06:11;;;;;;;2.73;2.50;;;15.50;99.90;;;;;;5070511;28;20473;-74
2022/08/10 02:09:21;;;;;;;2.60;2.40;;;15.50;99.90;;;;;;5071560;28;20458;-74
2022/08/10 02:12:37;;;;;;;2.50;2.30;;;15.40;99.90;;;;;;5074111;28;20438;-74
2022/08/10 02:15:45;;;;;;;2.47;2.27;;;15.40;99.90;;;;;;5079933;28;20717;-74
2022/08/10 02:19:16;;;;;;;3.03;2.83;;;15.30;99.90;;;;;;5081040;28;20979;-74
2022/08/10 02:22:29;;;;;;;4.23;2.97;;;15.30;99.90;;;;;;5072920;28;20480;-74
2022/08/10 02:25:48;;;;;;;2.90;2.60;;;15.30;99.90;;;;;;5073757;28;21077;-74
2022/08/10 02:29:02;;;;;;;2.83;2.57;;;15.30;99.90;;;;;;5075119;28;20590;-74
2022/08/10 02:35:25;;;;;;;2.37;2.10;;;15.20;99.90;;;;;;5073455;28;20996;-74
2022/08/10 02:38:48;;;;;;;2.67;2.47;;;15.20;99.90;;;;;;5074188;28;20483;-74
2022/08/10 02:42:03;;;;;;;3.33;2.70;;;15.10;99.90;;;;;;5073848;28;21392;-74
2022/08/10 02:45:27;;;;;;;2.60;2.40;;;15.10;99.90;;;;;;5067247;28;20473;-74
2022/08/10 02:48:29;;;;;;;2.67;2.53;;;15.10;99.90;;;;;;5074190;28;20497;-74
2022/08/10 02:52:05;;;;;;;2.80;2.60;;;15.10;99.90;;;;;;5075495;28;20458;-74
2022/08/10 02:58:53;;;;;;;2.93;2.73;;;15.00;99.90;;;;;;5075833;28;20543;-74
2022/08/10 03:01:55;;;;;;;3.63;2.67;;;14.90;99.90;;;;;;5072477;28;20457;-74
2022/08/10 03:05:15;;;;;;;;;;;;;;;;;;;;;
2022/08/10 03:08:35;;;;;;;2.60;2.40;;;14.90;99.90;;;;;;5073892;28;21059;-74
2022/08/10 03:11:41;;;;;;;2.63;2.43;;;14.90;99.90;;;;;;5075923;28;20453;-74
2022/08/10 03:15:24;;;;;;;2.97;2.77;;;14.90;99.90;;;;;;5075636;28;20862;-74
2022/08/10 03:18:27;;;;;;;2.47;2.33;;;14.90;99.90;;;;;;5075025;28;20580;-74
2022/08/10 03:21:49;;;;;;;2.97;2.77;;;14.80;99.90;;;;;;5073941;28;20590;-74
2022/08/10 03:25:09;;;;;;;3.60;3.20;;;14.80;99.90;;;;;;5073093;28;20497;-74
2022/08/10 03:28:23;;;;;;;2.93;2.73;;;14.80;99.90;;;;;;5075656;28;20454;-74
2022/08/10 03:31:26;;;;;;;2.97;2.67;;;14.80;99.90;;;;;;5073491;28;20552;-74
2022/08/10 03:34:22;;;;;;;2.80;2.60;;;14.70;99.90;;;;;;5071973;28;20481;-74
2022/08/10 03:47:57;;;;;;;2.87;2.67;;;14.70;99.90;;;;;;5071572;28;20461;-75
2022/08/10 03:54:04;;;;;;;3.03;2.83;;;14.60;99.90;;;;;;5078255;28;20457;-74
2022/08/10 03:57:28;;;;;;;2.80;2.60;;;14.60;99.90;;;;;;5077693;28;20592;-74
2022/08/10 04:00:38;;;;;;;3.07;2.77;;;14.60;99.90;;;;;;5077420;28;21023;-74
2022/08/10 04:03:40;;;;;;;2.97;2.63;;;14.60;99.90;;;;;;5075697;28;20440;-74
2022/08/10 04:06:55;;;;;;;2.90;2.70;;;14.60;99.90;;;;;;5073600;28;20551;-74
2022/08/10 04:10:23;;;;;;;3.30;3.00;;;14.60;99.90;;;;;;5073005;28;21709;-74
2022/08/10 04:13:41;;;;;;;3.30;3.00;;;14.60;99.90;;;;;;5074277;28;20441;-74
2022/08/10 04:16:47;;;;;;;3.43;3.17;;;14.50;99.90;;;;;;5074574;28;20956;-74
2022/08/10 04:20:07;;;;;;;3.13;2.80;;;14.50;99.90;;;;;;5072418;28;20535;-74
2022/08/10 04:23:10;;;;;;;4.13;3.83;;;14.60;99.90;;;;;;5075411;28;21981;-74
2022/08/10 04:26:05;;;;;;;3.50;3.20;;;14.60;99.90;;;;;;5079200;28;20618;-74
2022/08/10 04:29:30;;;;;;;3.70;3.40;;;14.60;99.90;;;;;;5076037;28;20449;-74
2022/08/10 04:32:57;;;;;;;3.37;3.07;;;14.50;99.90;;;;;;5075477;28;21100;-74
2022/08/10 04:35:53;;;;;;;3.57;2.87;;;14.60;99.90;;;;;;5076955;28;20552;-74
2022/08/10 04:38:51;;;;;;;3.90;3.60;;;14.60;99.90;;;;;;5075557;28;20445;-74
2022/08/10 04:41:51;;;;;;;4.27;3.00;;;14.60;99.90;;;;;;5068052;28;20445;-74
2022/08/10 04:44:58;;;;;;;3.50;3.20;;;14.60;99.90;;;;;;5073033;28;20557;-74
2022/08/10 04:47:49;;;;;;;4.73;3.93;;;14.60;99.90;;;;;;5075754;28;20452;-74
2022/08/10 04:51:07;;;;;;;;;;;;;;;;;;;;;
2022/08/10 04:54:26;;;;;;;;;;;;;;;;;;;;;
2022/08/10 05:00:46;;;;;;;3.27;3.07;;;14.70;99.90;;;;;;5070199;28;20453;-74
2022/08/10 05:03:55;;;;;;;4.10;3.70;;;14.70;99.90;;;;;;5065075;28;20965;-73
2022/08/10 05:07:27;;;;;;;4.03;3.63;;;14.70;99.90;;;;;;5065769;28;20474;-73
2022/08/10 05:10:44;;;;;;;3.93;3.53;;;14.70;99.90;;;;;;5070307;28;20456;-73
2022/08/10 05:13:47;;;;;;;3.73;3.43;;;14.80;99.90;;;;;;5066812;28;20445;-73
2022/08/10 05:16:54;;;;;;;4.13;3.10;;;14.80;99.90;;;;;;5066647;28;20470;-75
2022/08/10 05:19:57;;;;;;;4.03;3.50;;;14.80;99.90;;;;;;5064309;28;20457;-73
2022/08/10 05:23:02;;;;;;;4.60;4.10;;;14.90;99.90;;;;;;5064743;28;20524;-74
2022/08/10 05:26:34;;;;;;;3.13;2.83;;;14.90;99.90;;;;;;5064683;28;20678;-74
2022/08/10 05:29:49;;;;;;;3.40;3.10;;;15.00;99.90;;;;;;5060650;28;20492;-74
2022/08/10 05:32:51;;;;;;;3.90;3.50;;;15.10;99.90;;;;;;5044299;28;20455;-75
2022/08/10 05:35:50;;;;;;;4.33;3.60;;;15.10;99.90;;;;;;5066257;28;20474;-76
2022/08/10 05:38:46;;;;;;;3.30;2.93;;;15.20;99.90;;;;;;5049801;28;20457;-73
2022/08/10 05:41:35;;;;;;;4.70;3.50;;;15.30;99.90;;;;;;5058349;28;20534;-73
2022/08/10 05:44:50;;;;;;;3.30;3.03;;;15.30;99.90;;;;;;5045122;28;20484;-73
2022/08/10 05:47:43;;;;;;;3.10;2.90;;;15.30;99.90;;;;;;5060193;28;20491;-73
2022/08/10 05:50:55;;;;;;;3.53;3.20;;;15.40;99.90;;;;;;5068933;28;20472;-73
2022/08/10 05:53:46;;;;;;;4.00;3.20;;;15.50;99.90;;;;;;5052696;28;20553;-73
2022/08/10 05:56:56;;;;;;;3.83;3.20;;;15.60;99.90;;;;;;5056595;28;21152;-74
2022/08/10 06:00:00;;;;;;;3.37;3.07;;;15.70;99.90;;;;;;5061424;28;20461;-74
2022/08/10 06:03:11;;;;;;;3.07;2.87;;;15.70;99.90;;;;;;5055052;28;20515;-74
2022/08/10 06:06:04;;;;;;;3.07;2.77;;;15.80;99.90;;;;;;5032559;28;21696;-74
2022/08/10 06:08:54;;;;;;;3.67;3.37;;;15.90;99.90;;;;;;5061722;28;20457;-73
2022/08/10 06:11:44;;;;;;;3.77;2.80;;;15.90;99.90;;;;;;5052854;28;20582;-74
2022/08/10 06:15:02;;;;;;;3.80;3.50;;;16.00;99.90;;;;;;5060649;28;20969;-74
2022/08/10 06:17:53;;;;;;;3.10;2.80;;;16.10;99.90;;;;;;5052380;28;20461;-74
2022/08/10 06:20:50;;;;;;;3.70;2.70;;;16.20;99.90;;;;;;5069646;28;20453;-74
2022/08/10 06:23:42;;;;;;;2.63;2.43;;;16.20;99.90;;;;;;5053825;28;21147;-74
2022/08/10 06:26:30;;;;;;;3.07;2.80;;;16.30;99.90;;;;;;5058425;28;20428;-74
2022/08/10 06:29:19;;;;;;;3.23;2.87;;;16.40;99.90;;;;;;5045855;28;20465;-74
2022/08/10 06:32:11;;;;;;;3.80;3.10;;;16.40;99.90;;;;;;5046088;28;20567;-75
2022/08/10 06:35:03;;;;;;;3.00;2.70;;;16.50;99.90;;;;;;5056934;28;20500;-74
2022/08/10 06:37:53;;;;;;;2.97;2.63;;;16.60;99.90;;;;;;5053709;28;20461;-74
2022/08/10 06:40:45;;;;;;;2.50;2.37;;;16.70;99.90;;;;;;5054706;28;20539;-74
2022/08/10 06:43:35;;;;;;;2.30;2.20;;;16.80;99.90;;;;;;5057174;28;20481;-74
2022/08/10 06:46:26;;;;;;;2.60;2.40;;;16.90;99.90;;;;;;5062224;28;20440;-74
2022/08/10 06:49:18;;;;;;;3.67;2.50;;;17.00;99.90;;;;;;5063084;28;20971;-74
2022/08/10 06:52:10;;;;;;;2.67;2.30;;;17.10;99.90;;;;;;5049077;28;20497;-74
2022/08/10 06:55:10;;;;;;;3.20;3.00;;;17.20;99.90;;;;;;5051242;28;20489;-74
2022/08/10 06:58:01;;;;;;;3.10;2.90;;;17.30;99.90;;;;;;5059711;28;20450;-73
2022/08/10 07:00:54;;;;;;;3.10;2.63;;;17.40;99.90;;;;;;5055490;28;20459;-72
2022/08/10 07:03:48;;;;;;;2.87;2.63;;;17.40;99.90;;;;;;5044533;28;20457;-73
2022/08/10 07:06:41;;;;;;;2.90;2.70;;;17.50;99.90;;;;;;5057763;28;20983;-73
2022/08/10 07:09:34;;;;;;;3.83;3.10;;;17.60;99.90;;;;;;5062681;28;20521;-72
2022/08/10 07:12:24;;;;;;;3.40;3.10;;;17.70;99.90;;;;;;5058944;28;20545;-73
2022/08/10 07:15:16;;;;;;;3.03;2.60;;;17.80;99.90;;;;;;5048390;28;20495;-73
2022/08/10 07:18:06;;;;;;;3.23;2.93;;;17.90;99.90;;;;;;5053556;28;20445;-73
2022/08/10 07:21:00;;;;;;;4.27;2.93;;;17.90;99.90;;;;;;5054961;28;20458;-73
2022/08/10 07:23:49;;;;;;;2.83;2.53;;;18.00;99.90;;;;;;5053793;28;20572;-73
2022/08/10 07:26:50;;;;;;;3.30;3.00;;;18.10;99.90;;;;;;5054789;28;21115;-73
2022/08/10 07:29:41;;;;;;;2.70;2.50;;;18.20;99.90;;;;;;5046678;28;20455;-73
2022/08/10 07:32:44;;;;;;;3.43;2.97;;;18.30;99.90;;;;;;5046112;28;20469;-73
2022/08/10 07:35:34;;;;;;;3.40;2.80;;;18.40;99.90;;;;;;5061461;28;20969;-73
2022/08/10 07:38:33;;;;;;;4.00;2.43;;;18.40;99.90;;;;;;5060140;28;20961;-73
2022/08/10 07:41:25;;;;;;;3.73;3.03;;;18.50;99.90;;;;;;5056802;28;20464;-73
2022/08/10 07:44:14;;;;;;;3.30;2.40;;;18.60;99.90;;;;;;5057581;28;20446;-73
2022/08/10 07:47:04;;;;;;;2.90;2.63;;;18.70;99.90;;;;;;5040903;28;20796;-73
2022/08/10 07:49:56;;;;;;;2.77;2.27;;;18.80;99.90;;;;;;5058885;28;20559;-73
2022/08/10 07:52:47;;;;;;;4.43;2.37;;;18.90;99.90;;;;;;5052694;28;20522;-73
2022/08/10 07:55:37;;;;;;;3.20;2.90;;;18.90;99.90;;;;;;5056211;28;20488;-73
2022/08/10 07:58:50;;;;;;;2.43;2.17;;;19.00;99.90;;;;;;5046728;28;24088;-73
2022/08/10 08:01:49;;;;;;;3.90;2.63;;;19.10;99.90;;;;;;5042916;28;20528;-73
2022/08/10 08:04:38;;;;;;;3.00;2.40;;;19.20;99.90;;;;;;5065822;28;20472;-73
2022/08/10 08:07:29;;;;;;;2.60;2.40;;;19.30;99.90;;;;;;5061401;28;20460;-74
2022/08/10 08:10:18;;;;;;;2.43;2.23;;;19.40;99.90;;;;;;5069823;28;20453;-73
2022/08/10 08:13:07;;;;;;;2.80;2.60;;;19.40;99.90;;;;;;5058050;28;20505;-76
2022/08/10 08:15:59;;;;;;;3.30;2.50;;;19.50;99.90;;;;;;5061112;28;21178;-73
2022/08/10 08:19:09;;;;;;;2.50;2.30;;;19.60;99.90;;;;;;5069718;28;20449;-73
2022/08/10 08:22:18;;;;;;;3.30;2.50;;;19.70;99.90;;;;;;5057434;28;20475;-73
2022/08/10 08:25:28;;;;;;;3.00;2.17;;;19.80;99.90;;;;;;5063068;28;20491;-73
2022/08/10 08:28:17;;;;;;;3.00;2.70;;;19.90;99.90;;;;;;5065695;28;20550;-73
2022/08/10 08:31:07;;;;;;;2.80;2.20;;;20.00;99.90;;;;;;5066109;28;20551;-73
2022/08/10 08:33:57;;;;;;;5.67;3.20;;;20.00;99.90;;;;;;5062991;28;20519;-73
2022/08/10 08:36:48;;;;;;;3.83;3.50;;;20.10;99.90;;;;;;5061627;28;20485;-72
2022/08/10 08:39:37;;;;;;;3.60;3.17;;;20.20;99.90;;;;;;5070198;28;20656;-73
2022/08/10 08:42:44;;;;;;;5.73;3.87;;;20.20;99.90;;;;;;5067279;28;21183;-73
2022/08/10 08:45:45;;;;;;;2.17;1.97;;;20.30;99.90;;;;;;5062675;28;20476;-73
2022/08/10 08:49:12;;;;;;;3.60;2.60;;;20.40;99.90;;;;;;5064579;28;20445;-73
2022/08/10 08:52:33;;;;;;;9.17;4.37;;;20.50;99.90;;;;;;5064917;28;20449;-73
2022/08/10 08:55:34;;;;;;;2.90;2.60;;;20.50;99.90;;;;;;5062901;28;20483;-73
2022/08/10 08:59:06;;;;;;;2.13;2.00;;;20.60;99.90;;;;;;5064114;28;20508;-73
2022/08/10 09:02:08;;;;;;;3.73;2.00;;;20.80;99.90;;;;;;5054347;28;20964;-73
2022/08/10 09:05:08;;;;;;;2.10;1.90;;;20.80;99.90;;;;;;5051780;28;20487;-73
2022/08/10 09:08:09;;;;;;;1.87;1.77;;;20.90;99.90;;;;;;5052033;28;20866;-73
2022/08/10 09:11:04;;;;;;;1.80;1.70;;;21.00;99.90;;;;;;5057047;28;20452;-73
2022/08/10 09:14:00;;;;;;;2.37;1.50;;;21.00;99.90;;;;;;5050316;28;20495;-73
2022/08/10 09:16:58;;;;;;;1.87;1.70;;;21.10;99.90;;;;;;5042116;28;21091;-73
2022/08/10 09:19:51;;;;;;;1.50;1.40;;;21.20;99.90;;;;;;5062150;28;20961;-72
2022/08/10 09:22:53;;;;;;;1.87;1.50;;;21.30;99.90;;;;;;5056052;28;20462;-73
2022/08/10 09:25:52;;;;;;;3.43;1.60;;;21.30;99.90;;;;;;5048724;28;20489;-73
2022/08/10 09:28:43;;;;;;;1.90;1.80;;;21.40;99.90;;;;;;5053469;28;20548;-72
2022/08/10 09:31:52;;;;;;;1.50;1.40;;;21.40;99.90;;;;;;5064888;28;20462;-73
2022/08/10 09:35:09;;;;;;;1.70;1.60;;;21.50;99.90;;;;;;5059768;28;20469;-73
2022/08/10 09:38:28;;;;;;;1.30;1.20;;;21.50;99.90;;;;;;5060628;28;20480;-75
2022/08/10 09:41:45;;;;;;;3.67;2.00;;;21.60;99.90;;;;;;5053322;28;21076;-74
2022/08/10 09:44:40;;;;;;;1.70;1.60;;;21.70;99.90;;;;;;5060316;28;20843;-74
2022/08/10 09:47:57;;;;;;;1.60;1.50;;;21.70;99.90;;;;;;5059373;28;20454;-75
2022/08/10 09:50:58;;;;;;;4.50;1.60;;;21.80;99.90;;;;;;5065018;28;20961;-75
2022/08/10 09:54:17;;;;;;;1.53;1.43;;;21.80;99.90;;;;;;5068541;28;20450;-75
2022/08/10 09:57:20;;;;;;;1.93;1.83;;;22.00;99.90;;;;;;5065222;28;20469;-74
2022/08/10 10:00:34;;;;;;;1.93;1.43;;;22.00;99.90;;;;;;5060945;28;20456;-74
2022/08/10 10:03:31;;;;;;;1.30;1.20;;;22.10;99.90;;;;;;5066649;28;20437;-75
2022/08/10 10:06:28;;;;;;;1.60;1.40;;;22.20;99.90;;;;;;5068650;28;20454;-77
2022/08/10 10:09:21;;;;;;;1.50;1.40;;;22.20;99.90;;;;;;5067586;28;20879;-78
2022/08/10 10:12:24;;;;;;;1.80;1.70;;;22.30;99.90;;;;;;5069829;28;20944;-76
2022/08/10 10:15:26;;;;;;;1.70;1.60;;;22.30;99.90;;;;;;5067844;28;20561;-76
2022/08/10 10:18:22;;;;;;;2.00;1.40;;;22.40;99.90;;;;;;5064867;28;20468;-76
2022/08/10 10:21:20;;;;;;;1.50;1.40;;;22.60;99.90;;;;;;5067436;28;20840;-75
2022/08/10 10:24:41;;;;;;;1.20;1.10;;;22.60;99.90;;;;;;5060976;28;20468;-76
2022/08/10 10:27:39;;;;;;;1.50;1.30;;;22.60;99.90;;;;;;5059343;28;20481;-75
2022/08/10 10:30:36;;;;;;;1.50;1.40;;;22.70;99.90;;;;;;5069055;28;20461;-75
2022/08/10 10:33:35;;;;;;;2.20;1.13;;;22.70;99.90;;;;;;5071162;28;20487;-75
2022/08/10 10:36:27;;;;;;;1.40;1.30;;;22.80;99.90;;;;;;5064927;28;20844;-75
2022/08/10 10:39:18;;;;;;;1.63;1.53;;;22.80;99.90;;;;;;5070188;28;20553;-75
2022/08/10 10:42:23;;;;;;;1.77;1.40;;;22.90;99.90;;;;;;5068864;28;20551;-75
2022/08/10 10:45:38;;;;;;;1.50;1.40;;;23.00;99.90;;;;;;5060158;28;20502;-75
2022/08/10 10:48:47;;;;;;;1.40;1.30;;;23.00;99.90;;;;;;5063284;28;20464;-75
2022/08/10 10:51:48;;;;;;;1.60;1.30;;;23.20;99.90;;;;;;5059135;28;20541;-77
2022/08/10 10:54:47;;;;;;;1.30;1.30;;;23.30;99.90;;;;;;5061329;28;20462;-75
2022/08/10 10:57:46;;;;;;;1.50;1.27;;;23.40;99.90;;;;;;5065680;28;20484;-74
2022/08/10 11:00:57;;;;;;;2.07;1.10;;;23.40;99.90;;;;;;5056188;28;20485;-74
2022/08/10 11:03:57;;;;;;;1.30;1.20;;;23.60;99.90;;;;;;5068891;28;20549;-74
2022/08/10 11:06:57;;;;;;;1.67;1.40;;;23.60;99.90;;;;;;5060884;28;20512;-73
2022/08/10 11:09:50;;;;;;;1.57;1.30;;;23.70;99.90;;;;;;5064494;28;20449;-74
2022/08/10 11:13:12;;;;;;;1.73;1.50;;;23.80;99.90;;;;;;5066855;28;20445;-75
2022/08/10 11:16:28;;;;;;;1.60;1.50;;;23.90;99.90;;;;;;5069022;28;20473;-74
2022/08/10 11:19:23;;;;;;;1.80;1.70;;;24.00;99.90;;;;;;5066225;28;20450;-75
2022/08/10 11:22:19;;;;;;;1.50;1.40;;;24.10;99.90;;;;;;5073094;28;20824;-75
2022/08/10 11:25:15;;;;;;;1.90;1.50;;;24.20;99.90;;;;;;5070163;28;20558;-75
2022/08/10 11:28:12;;;;;;;1.70;1.53;;;24.30;99.90;;;;;;5063251;28;20588;-75
2022/08/10 11:31:10;;;;;;;1.30;1.20;;;24.30;99.90;;;;;;5063516;28;20478;-75
2022/08/10 11:34:03;;;;;;;1.67;1.50;;;24.40;99.90;;;;;;5061928;28;20880;-75
2022/08/10 11:37:20;;;;;;;1.43;1.33;;;24.50;99.90;;;;;;5066181;28;20469;-75
2022/08/10 11:40:17;;;;;;;1.43;1.00;;;24.60;99.90;;;;;;5067351;28;20490;-76
2022/08/10 11:43:13;;;;;;;1.60;1.50;;;24.70;99.90;;;;;;5065475;28;20966;-75
2022/08/10 11:46:19;;;;;;;1.30;1.20;;;24.80;99.90;;;;;;5068164;28;20573;-75
2022/08/10 11:49:33;;;;;;;1.30;1.20;;;24.90;99.90;;;;;;5067583;28;20477;-75
2022/08/10 11:52:35;;;;;;;1.10;1.10;;;25.00;99.90;;;;;;5069777;28;20542;-76
2022/08/10 11:55:27;;;;;;;1.60;1.30;;;25.10;99.90;;;;;;5060652;28;20486;-75
2022/08/10 12:01:29;;;;;;;1.10;1.00;;;25.30;99.90;;;;;;5071471;28;20850;-75
2022/08/10 12:04:20;;;;;;;1.57;1.17;;;25.40;99.90;;;;;;5058905;28;20522;-73
2022/08/10 12:07:10;;;;;;;1.97;1.53;;;25.50;99.90;;;;;;5067801;28;20533;-73
2022/08/10 12:10:22;;;;;;;1.37;1.30;;;25.60;99.90;;;;;;5068791;28;20449;-73
2022/08/10 12:13:16;;;;;;;1.37;1.13;;;25.70;99.90;;;;;;5059700;28;21461;-75
2022/08/10 12:16:09;;;;;;;1.67;1.20;;;25.80;99.90;;;;;;5059932;28;21060;-73
2022/08/10 12:19:08;;;;;;;1.30;1.20;;;25.90;99.90;;;;;;5060825;28;20616;-73
2022/08/10 12:22:00;;;;;;;2.00;1.30;;;25.90;99.90;;;;;;5056201;28;20462;-74
2022/08/10 12:24:57;;;;;;;1.00;1.00;;;26.00;99.90;;;;;;5064061;28;20481;-74
2022/08/10 12:27:55;;;;;;;1.30;1.30;;;26.10;99.90;;;;;;5063162;28;20548;-73
2022/08/10 12:30:51;;;;;;;1.23;1.13;;;26.20;99.90;;;;;;5061153;28;20553;-75
2022/08/10 12:33:46;;;;;;;1.23;1.20;;;26.30;99.90;;;;;;5058596;28;20573;-76
2022/08/10 12:37:00;;;;;;;1.73;1.23;;;26.50;99.90;;;;;;5053022;28;20548;-76
2022/08/10 12:39:58;;;;;;;1.40;1.30;;;26.70;99.90;;;;;;5052732;28;20446;-76
2022/08/10 12:43:15;;;;;;;1.60;1.50;;;26.80;99.90;;;;;;5048763;28;20442;-75
2022/08/10 12:46:32;;;;;;;1.27;1.17;;;26.90;99.90;;;;;;5049754;28;20489;-75
2022/08/10 12:49:30;;;;;;;2.50;1.30;;;27.00;99.90;;;;;;5055632;28;20989;-75
2022/08/10 12:52:20;;;;;;;1.50;1.40;;;27.10;99.90;;;;;;5050244;28;21476;-75
2022/08/10 12:55:10;;;;;;;2.53;1.27;;;27.20;99.90;;;;;;5064673;28;20533;-75
2022/08/10 12:57:59;;;;;;;1.93;1.40;;;27.30;99.90;;;;;;5064481;28;20518;-75
2022/08/10 13:00:55;;;;;;;1.53;1.27;;;27.50;99.90;;;;;;5053077;28;20473;-75
2022/08/10 13:04:07;;;;;;;1.10;1.00;;;27.50;99.90;;;;;;5051446;28;20491;-75
2022/08/10 13:07:12;;;;;;;1.40;1.30;;;27.60;99.90;;;;;;5058393;28;20563;-75
2022/08/10 13:10:23;;;;;;;1.60;1.50;;;27.70;99.90;;;;;;5053791;28;20487;-75
2022/08/10 13:13:14;;;;;;;1.40;1.10;;;27.90;99.90;;;;;;5051872;28;20561;-74
2022/08/10 13:16:05;;;;;;;2.77;1.53;;;28.00;99.90;;;;;;5058408;28;20887;-75
2022/08/10 13:18:58;;;;;;;1.80;1.20;;;28.20;99.90;;;;;;5057953;28;20938;-74
2022/08/10 13:21:47;;;;;;;1.30;1.20;;;28.40;99.90;;;;;;5062523;28;20578;-74
2022/08/10 13:24:41;;;;;;;2.03;1.20;;;28.40;99.90;;;;;;5067840;28;20462;-74
2022/08/10 13:27:36;;;;;;;1.57;1.20;;;28.50;99.90;;;;;;5051549;28;20510;-74
2022/08/10 13:30:49;;;;;;;1.40;1.30;;;28.70;99.90;;;;;;5042827;28;20512;-74
2022/08/10 13:33:45;;;;;;;1.30;1.30;;;28.80;99.90;;;;;;5058081;28;20464;-74
2022/08/10 13:36:57;;;;;;;1.30;1.20;;;29.00;99.90;;;;;;5045433;28;20456;-72
2022/08/10 13:39:53;;;;;;;1.20;1.10;;;29.10;99.90;;;;;;5062246;28;20476;-72
2022/08/10 13:42:50;;;;;;;1.63;1.20;;;29.20;99.90;;;;;;5063072;28;20543;-74
2022/08/10 13:45:42;;;;;;;1.50;1.40;;;29.30;99.90;;;;;;5039334;28;21065;-74
2022/08/10 13:48:41;;;;;;;1.63;1.53;;;29.40;99.90;;;;;;5061797;28;20452;-74
2022/08/10 13:51:35;;;;;;;1.60;1.40;;;29.40;99.90;;;;;;5051752;28;20657;-74
2022/08/10 13:54:46;;;;;;;1.70;1.60;;;29.60;99.90;;;;;;5058231;28;20639;-74
2022/08/10 13:57:36;;;;;;;1.37;1.27;;;29.70;99.90;;;;;;5055818;28;20615;-74
2022/08/10 14:00:38;;;;;;;1.50;1.40;;;29.90;99.90;;;;;;5053665;28;20860;-75
2022/08/10 14:03:28;;;;;;;1.40;1.30;;;30.10;99.90;;;;;;5044577;28;20569;-74
2022/08/10 14:06:20;;;;;;;1.60;1.50;;;30.10;99.40;;;;;;5059645;28;20483;-74
2022/08/10 14:09:17;;;;;;;2.10;1.30;;;30.20;96.50;;;;;;5044923;28;20453;-75
2022/08/10 14:12:07;;;;;;;1.50;1.40;;;30.10;97.60;;;;;;5054687;28;20452;-75
2022/08/10 14:14:57;;;;;;;1.20;1.20;;;30.20;97.60;;;;;;5051697;28;20506;-75
2022/08/10 14:17:49;;;;;;;3.13;1.43;;;30.30;97.60;;;;;;5058249;28;20463;-75
2022/08/10 14:20:39;;;;;;;1.60;1.50;;;30.50;96.50;;;;;;5057764;28;20968;-76
2022/08/10 14:23:31;;;;;;;2.30;1.30;;;30.70;97.00;;;;;;5059255;28;20544;-75
2022/08/10 14:26:24;;;;;;;1.40;1.27;;;30.80;95.00;;;;;;5060862;28;20605;-76
2022/08/10 14:29:14;;;;;;;1.50;1.40;;;30.90;97.50;;;;;;5055235;28;21092;-75
2022/08/10 14:32:09;;;;;;;1.63;1.40;;;31.40;96.30;;;;;;5059692;28;20493;-76
2022/08/10 14:34:59;;;;;;;1.63;1.53;;;31.70;96.40;;;;;;5053757;28;20602;-75
2022/08/10 14:38:12;;;;;;;1.63;1.40;;;32.00;95.50;;;;;;5051616;28;20984;-74
2022/08/10 14:41:15;;;;;;;1.53;1.30;;;32.30;95.00;;;;;;5058304;28;20931;-74
2022/08/10 14:44:28;;;;;;;1.70;1.60;;;32.80;95.50;;;;;;5057439;28;21610;-74
2022/08/10 14:47:21;;;;;;;2.20;1.37;;;34.60;88.40;;;;;;5053396;28;20446;-75
2022/08/10 14:50:32;;;;;;;1.67;1.57;;;34.60;88.80;;;;;;5057074;28;20517;-76
2022/08/10 14:53:22;;;;;;;1.53;1.43;;;35.10;86.90;;;;;;5055138;28;20460;-77
2022/08/10 14:56:18;;;;;;;1.60;1.50;;;34.70;82.30;;;;;;5052225;28;20473;-77
2022/08/10 14:59:08;;;;;;;1.77;1.67;;;34.30;82.80;;;;;;5056853;28;20473;-77
2022/08/10 15:02:02;;;;;;;1.67;1.57;;;33.80;84.30;;;;;;5060071;28;20469;-78
2022/08/10 15:05:15;;;;;;;2.33;1.63;;;33.70;85.50;;;;;;5055305;28;20465;-78
2022/08/10 15:08:04;;;;;;;1.40;1.30;;;33.60;85.20;;;;;;5068883;28;20492;-79
2022/08/10 15:11:00;;;;;;;2.50;1.50;;;33.40;84.40;;;;;;5060636;28;20469;-77
2022/08/10 15:13:52;;;;;;;1.67;1.57;;;33.20;84.90;;;;;;5056450;28;20981;-79
2022/08/10 15:17:02;;;;;;;1.60;1.50;;;33.10;86.50;;;;;;5069268;28;20482;-77
2022/08/10 15:19:59;;;;;;;1.50;1.40;;;32.80;83.40;;;;;;5056937;28;20542;-74
2022/08/10 15:23:05;;;;;;;2.03;1.87;;;32.60;82.80;;;;;;5057171;28;20454;-74
2022/08/10 15:25:58;;;;;;;1.93;1.50;;;32.30;85.20;;;;;;5062585;28;20600;-73
2022/08/10 15:28:54;;;;;;;1.70;1.60;;;32.00;84.30;;;;;;5066729;28;20454;-76
2022/08/10 15:38:26;;;;;;;2.30;1.90;;;31.40;87.80;;;;;;5065589;28;20540;-75
2022/08/10 15:41:35;;;;;;;2.50;1.90;;;31.30;87.30;;;;;;5063180;28;20991;-76
2022/08/10 15:44:48;;;;;;;8.13;2.60;;;31.10;87.00;;;;;;5065984;28;20552;-77
2022/08/10 15:47:40;;;;;;;2.00;1.87;;;30.90;89.50;;;;;;5065849;28;20511;-76
2022/08/10 15:50:38;;;;;;;2.80;1.93;;;30.80;90.80;;;;;;5064280;28;25005;-73
2022/08/10 15:53:32;;;;;;;1.63;1.53;;;30.70;90.80;;;;;;5059653;28;20442;-72
2022/08/10 15:56:43;;;;;;;3.43;2.20;;;30.60;91.60;;;;;;5068939;28;20450;-72
2022/08/10 15:59:43;;;;;;;1.90;1.80;;;30.50;90.70;;;;;;5071377;28;20481;-72
2022/08/10 16:02:44;;;;;;;4.60;1.60;;;30.40;91.10;;;;;;5064204;28;20992;-72
2022/08/10 16:05:41;;;;;;;1.90;1.80;;;30.30;91.20;;;;;;5065689;28;20500;-72
2022/08/10 16:08:51;;;;;;;2.10;1.70;;;30.10;90.20;;;;;;5063543;28;20485;-72
2022/08/10 16:11:53;;;;;;;3.17;2.07;;;30.10;91.80;;;;;;5058712;28;20551;-72
2022/08/10 16:14:50;;;;;;;1.70;1.60;;;30.00;92.10;;;;;;5065767;28;21260;-72
2022/08/10 16:17:51;;;;;;;2.03;1.90;;;30.00;92.50;;;;;;5063868;28;20442;-72
2022/08/10 16:20:50;;;;;;;2.90;2.60;;;30.00;92.80;;;;;;5067063;28;20634;-72
2022/08/10 16:23:47;;;;;;;2.77;1.90;;;30.00;92.40;;;;;;5065134;28;20490;-72
2022/08/10 16:26:57;;;;;;;6.93;5.30;;;30.00;93.10;;;;;;5062466;28;20472;-74
2022/08/10 16:29:46;;;;;;;10.67;8.13;;;29.90;92.10;;;;;;5060939;28;20554;-72
2022/08/10 16:32:45;;;;;;;3.10;2.90;;;29.90;92.90;;;;;;5056932;28;20461;-72
2022/08/10 16:35:35;;;;;;;2.90;2.37;;;29.80;91.80;;;;;;5066641;28;20560;-72
2022/08/10 16:38:25;;;;;;;2.37;2.17;;;29.80;92.60;;;;;;5048399;28;20500;-73
2022/08/10 16:41:15;;;;;;;2.83;2.17;;;29.70;91.90;;;;;;5050432;28;20485;-72